createdAt,value
2023-01-17T06:38:57.759Z,2.50
2023-01-17T06:43:59.821Z,2.80
2023-01-17T06:49:02.043Z,2.20
2023-01-17T06:54:04.233Z,2.70
2023-01-17T06:59:06.434Z,2.55
2023-01-17T07:04:08.623Z,2.80
2023-01-17T07:09:10.735Z,2.65
2023-01-17T07:14:13.769Z,2.67
2023-01-17T07:19:15.972Z,2.63
2023-01-17T07:24:18.720Z,2.65
2023-01-17T07:29:20.828Z,3.03
2023-01-17T07:34:22.867Z,2.60
2023-01-17T07:39:25.164Z,2.90
2023-01-17T07:44:27.252Z,1.80
2023-01-17T07:49:29.330Z,2.05
2023-01-17T07:54:31.373Z,1.43
2023-01-17T07:59:34.486Z,1.40
2023-01-17T08:04:36.605Z,0.90
2023-01-17T08:09:38.659Z,1.10
2023-01-17T08:14:40.716Z,0.90
2023-01-17T08:19:43.369Z,0.80
2023-01-17T08:24:45.419Z,0.90
2023-01-17T08:29:48.461Z,0.30
2023-01-17T08:34:50.571Z,0.40
2023-01-17T08:39:52.689Z,0.70
2023-01-17T08:44:54.762Z,0.60
2023-01-17T08:49:59.612Z,0.47
2023-01-17T08:55:01.957Z,0.50
2023-01-17T09:00:04.317Z,0.40
2023-01-17T09:05:07.043Z,0.30
2023-01-17T09:10:09.734Z,0.50
2023-01-17T09:15:14.701Z,0.30
2023-01-17T09:20:17.143Z,0.40
2023-01-17T09:25:19.271Z,0.50
2023-01-17T09:30:22.183Z,0.62
2023-01-17T09:35:24.559Z,0.90
2023-01-17T09:52:23.833Z,0.30
2023-01-17T09:57:57.049Z,0.70
2023-01-17T10:03:05.213Z,0.45
2023-01-17T10:08:19.273Z,0.40
2023-01-17T10:13:35.518Z,0.60
2023-01-17T10:19:19.518Z,0.57
2023-01-17T10:24:59.111Z,0.43
2023-01-17T10:30:16.963Z,0.63
2023-01-17T10:35:26.514Z,0.40
2023-01-17T10:40:50.282Z,0.68
2023-01-17T10:45:55.301Z,0.60
2023-01-17T10:51:20.315Z,0.90
2023-01-17T10:56:28.073Z,0.62
2023-01-17T11:01:30.360Z,1.07
2023-01-17T11:06:33.213Z,0.70
2023-01-17T11:11:37.500Z,0.77
2023-01-17T11:16:39.628Z,0.80
2023-01-17T11:21:54.822Z,0.77
2023-01-17T11:26:58.049Z,0.80
2023-01-17T11:32:33.691Z,0.40
2023-01-17T11:37:36.268Z,0.53
2023-01-17T11:42:38.513Z,0.30
2023-01-17T11:47:40.574Z,0.35
2023-01-17T11:52:43.382Z,0.30
2023-01-17T11:57:50.911Z,0.30
2023-01-17T12:03:16.079Z,0.40
2023-01-17T12:08:53.138Z,0.50
2023-01-17T12:14:34.463Z,0.30
2023-01-17T12:20:00.825Z,0.35
2023-01-17T12:25:24.661Z,0.30
2023-01-17T12:30:55.909Z,0.67
2023-01-17T12:36:02.963Z,0.82
2023-01-17T12:41:42.534Z,0.70
2023-01-17T12:46:54.584Z,0.77
2023-01-17T12:52:04.974Z,1.20
2023-01-17T12:57:45.677Z,0.88
2023-01-17T13:02:50.753Z,1.25
2023-01-17T13:08:10.967Z,1.30
2023-01-17T13:13:26.008Z,1.65
2023-01-17T13:18:29.857Z,1.73
2023-01-17T13:23:56.425Z,1.23
2023-01-17T13:29:20.187Z,2.45
2023-01-17T13:34:43.715Z,2.17
2023-01-17T13:40:21.811Z,1.80
2023-01-17T13:45:28.546Z,2.73
2023-01-17T13:50:36.806Z,1.65
2023-01-17T13:55:47.266Z,1.92
2023-01-17T14:00:50.611Z,1.80
2023-01-17T14:05:57.119Z,2.10
2023-01-17T14:11:09.827Z,2.85
2023-01-17T14:16:21.011Z,2.20
2023-01-17T14:21:26.297Z,1.77
2023-01-17T14:26:46.362Z,1.92
2023-01-17T14:31:49.328Z,2.10
2023-01-17T14:36:51.405Z,2.30
2023-01-17T14:41:53.504Z,2.20
2023-01-17T14:46:57.211Z,2.05
2023-01-17T14:52:03.974Z,2.50
2023-01-17T14:57:24.917Z,2.20
2023-01-17T15:02:27.220Z,2.70
2023-01-17T15:07:32.317Z,2.70
2023-01-17T15:12:36.746Z,3.12
2023-01-17T15:17:38.852Z,3.20
2023-01-17T15:22:41.012Z,3.40
2023-01-17T15:27:43.296Z,3.60
2023-01-17T15:32:49.266Z,3.33
2023-01-17T15:37:54.263Z,3.05
2023-01-17T15:42:59.380Z,3.20
2023-01-17T15:48:32.721Z,2.58
2023-01-17T15:53:40.732Z,2.72
2023-01-17T15:58:42.843Z,2.70
2023-01-17T16:03:55.329Z,3.67
2023-01-17T16:08:57.458Z,2.90
2023-01-17T16:13:59.648Z,3.10
2023-01-17T16:19:02.852Z,2.50
2023-01-17T16:24:06.043Z,2.80
2023-01-17T16:29:08.253Z,2.70
2023-01-17T16:34:14.659Z,2.20
2023-01-17T16:39:16.823Z,2.40
2023-01-17T16:44:19.498Z,2.28
2023-01-17T16:49:21.564Z,2.10
2023-01-17T16:54:23.780Z,1.92
2023-01-17T16:59:32.192Z,2.70
2023-01-17T17:04:38.841Z,2.10
2023-01-17T17:09:41.042Z,1.90
2023-01-17T17:14:43.302Z,2.33
2023-01-17T17:19:45.390Z,2.17
2023-01-17T17:24:47.428Z,2.03
2023-01-17T17:29:49.488Z,2.60
2023-01-17T17:34:51.559Z,2.67
2023-01-17T17:39:53.625Z,2.80
2023-01-17T17:44:55.706Z,2.87
2023-01-17T17:49:57.899Z,3.08
2023-01-17T17:55:00.046Z,3.17
2023-01-17T18:00:02.532Z,3.40
2023-01-17T18:05:05.041Z,5.15
2023-01-17T18:10:08.918Z,4.45
2023-01-17T18:15:11.203Z,3.50
2023-01-17T18:20:14.472Z,3.50
2023-01-17T18:25:16.688Z,3.15
2023-01-17T18:30:18.786Z,3.17
2023-01-17T18:35:20.855Z,3.30
2023-01-17T18:40:23.030Z,3.97
2023-01-17T18:45:25.077Z,3.90
2023-01-17T18:50:27.154Z,4.10
2023-01-17T18:55:29.255Z,3.50
2023-01-17T19:00:31.387Z,3.90
2023-01-17T19:05:36.213Z,3.60
2023-01-17T19:10:38.449Z,4.20
2023-01-17T19:15:41.753Z,3.53
2023-01-17T19:20:43.943Z,3.70
2023-01-17T19:25:46.025Z,3.08
2023-01-17T19:30:48.104Z,2.42
2023-01-17T19:35:50.386Z,1.97
2023-01-17T19:40:52.484Z,1.97
2023-01-17T19:45:59.361Z,1.95
2023-01-17T19:51:13.102Z,1.60
2023-01-17T19:56:17.671Z,1.50
2023-01-17T20:01:30.313Z,1.90
2023-01-17T20:06:35.635Z,1.25
2023-01-17T20:11:38.382Z,0.80
2023-01-17T20:16:40.588Z,0.90
2023-01-17T20:21:42.793Z,0.90
2023-01-17T20:26:44.949Z,1.13
2023-01-17T20:31:52.482Z,0.90
2023-01-17T20:36:57.491Z,0.80
2023-01-17T20:41:59.591Z,0.75
2023-01-17T20:47:01.777Z,0.70
2023-01-17T20:52:06.057Z,0.90
2023-01-17T20:57:08.289Z,1.05
